createdAt,value
2019-05-05T11:14:48.950Z,8.83
2019-05-05T11:24:59.948Z,8.96
2019-05-05T11:34:53.549Z,9.36
2019-05-05T11:44:54.414Z,9.49
2019-05-05T11:55:08.627Z,9.32
2019-05-05T12:04:58.350Z,9.64
2019-05-05T12:14:58.999Z,9.68
2019-05-05T12:24:59.702Z,10.35
2019-05-05T12:35:00.390Z,10.30
2019-05-05T12:45:01.014Z,9.98
2019-05-05T12:55:05.124Z,9.95
2019-05-05T13:05:06.064Z,10.23
2019-05-05T13:15:08.456Z,9.85
2019-05-05T13:25:09.168Z,9.18
2019-05-05T13:35:09.925Z,10.27
2019-05-05T13:45:10.975Z,9.88
2019-05-05T13:55:13.843Z,9.26
2019-05-05T14:05:14.828Z,10.36
2019-05-05T14:15:18.044Z,10.28
2019-05-05T14:25:24.220Z,10.58
2019-05-05T14:35:25.403Z,11.40
2019-05-05T14:45:26.149Z,11.19
2019-05-05T14:55:26.865Z,11.66
2019-05-05T15:05:27.757Z,11.33
2019-05-05T15:15:28.615Z,12.67
2019-05-05T15:25:30.262Z,11.59
2019-05-05T15:35:30.931Z,10.65
2019-05-05T15:45:31.610Z,9.10
2019-05-05T15:55:33.984Z,8.79
2019-05-05T16:05:34.695Z,8.94
2019-05-05T16:15:35.398Z,9.31
2019-05-05T16:25:36.446Z,9.55
2019-05-05T16:35:37.421Z,10.46
2019-05-05T16:45:38.468Z,9.82
2019-05-05T16:55:39.161Z,9.58
2019-05-05T17:05:40.061Z,9.87
2019-05-05T17:15:40.773Z,10.28
2019-05-05T17:25:43.810Z,10.66
2019-05-05T17:35:44.347Z,10.64
2019-05-05T17:45:45.031Z,10.58
2019-05-05T17:55:45.922Z,9.86
2019-05-05T18:05:46.603Z,9.59
2019-05-05T18:15:48.362Z,9.52
2019-05-05T18:25:49.317Z,9.78
2019-05-05T18:35:50.233Z,8.70
2019-05-05T18:45:51.204Z,8.32
2019-05-05T18:55:53.887Z,8.38
2019-05-05T19:05:54.746Z,7.92
2019-05-05T19:15:55.623Z,8.15
2019-05-05T19:25:58.504Z,7.83
2019-05-05T19:35:59.226Z,8.12
2019-05-05T19:46:00.155Z,8.44
2019-05-05T19:56:01.042Z,8.53
2019-05-05T20:06:02.018Z,8.50
2019-05-05T20:16:04.488Z,9.00
2019-05-05T20:26:05.559Z,9.33
2019-05-05T20:36:06.517Z,9.38
2019-05-05T20:46:08.321Z,10.17
2019-05-05T20:56:09.007Z,8.32
2019-05-05T21:06:09.763Z,8.51
2019-05-05T21:16:10.694Z,8.47
2019-05-05T21:26:11.384Z,8.98
2019-05-05T21:36:14.568Z,9.22
2019-05-05T21:46:15.397Z,9.47
2019-05-05T21:56:16.295Z,9.41
2019-05-05T22:06:16.937Z,8.96
2019-05-05T22:16:17.637Z,8.54
2019-05-05T22:26:18.559Z,9.10
2019-05-05T22:36:19.210Z,9.27
2019-05-05T22:46:19.897Z,9.24
2019-05-05T22:56:20.814Z,8.75
2019-05-05T23:06:21.592Z,8.05
2019-05-05T23:16:23.757Z,7.87
2019-05-05T23:26:25.412Z,7.11
2019-05-05T23:36:26.101Z,7.20
2019-05-05T23:46:26.989Z,6.79
2019-05-05T23:56:27.891Z,5.75
